National Weather Service United States Department of Commerce


605
FTPA31 PHFO 222332
TAFSTU
TAF
NSTU 222332Z 2300/2324 13008KT P6SM FEW020 SCT040 BKN100=


000
SAZS31 NSTU 230054
MTRPPG
METAR NSTU 230050Z 12011KT 12SM SCT016 29/24 A2988 RMK SLP119
T02880240=



METAR Formatted Surface Weather Observation  Issued: 07/22/2018 01:54:15 PM SST

NSTU Observation History

 

Significant Weather Charts